sensor_id;sensor_type;location;lat;lon;timestamp;P1;durP1;ratioP1;P2;durP2;ratioP2
3280;SDS011;1652;51.318;6.202;2023-04-15T00:01:50;4.53;;;4.23;;
3280;SDS011;1652;51.318;6.202;2023-04-15T00:04:17;6.30;;;4.77;;
3280;SDS011;1652;51.318;6.202;2023-04-15T00:06:51;5.07;;;4.57;;
3280;SDS011;1652;51.318;6.202;2023-04-15T00:09:19;5.17;;;4.63;;
3280;SDS011;1652;51.318;6.202;2023-04-15T00:11:46;8.77;;;5.30;;
3280;SDS011;1652;51.318;6.202;2023-04-15T00:14:13;5.67;;;5.03;;
3280;SDS011;1652;51.318;6.202;2023-04-15T00:16:40;7.10;;;5.33;;
3280;SDS011;1652;51.318;6.202;2023-04-15T00:19:07;6.83;;;5.50;;
3280;SDS011;1652;51.318;6.202;2023-04-15T00:21:34;8.17;;;5.20;;
3280;SDS011;1652;51.318;6.202;2023-04-15T00:24:01;7.73;;;4.60;;
3280;SDS011;1652;51.318;6.202;2023-04-15T00:26:29;7.53;;;5.20;;
3280;SDS011;1652;51.318;6.202;2023-04-15T00:28:55;5.87;;;5.47;;
3280;SDS011;1652;51.318;6.202;2023-04-15T00:31:23;8.10;;;5.20;;
3280;SDS011;1652;51.318;6.202;2023-04-15T00:33:51;6.83;;;4.63;;
3280;SDS011;1652;51.318;6.202;2023-04-15T00:36:18;6.93;;;4.50;;
3280;SDS011;1652;51.318;6.202;2023-04-15T00:38:45;7.27;;;5.53;;
3280;SDS011;1652;51.318;6.202;2023-04-15T00:41:12;6.80;;;5.50;;
3280;SDS011;1652;51.318;6.202;2023-04-15T00:43:39;7.47;;;6.17;;
3280;SDS011;1652;51.318;6.202;2023-04-15T00:46:06;6.73;;;6.10;;
3280;SDS011;1652;51.318;6.202;2023-04-15T00:48:34;12.20;;;6.20;;
3280;SDS011;1652;51.318;6.202;2023-04-15T00:51:02;9.37;;;5.33;;
3280;SDS011;1652;51.318;6.202;2023-04-15T00:53:29;13.17;;;6.77;;
3280;SDS011;1652;51.318;6.202;2023-04-15T00:55:56;7.07;;;5.53;;
3280;SDS011;1652;51.318;6.202;2023-04-15T00:58:23;6.63;;;5.20;;
3280;SDS011;1652;51.318;6.202;2023-04-15T01:00:51;7.20;;;6.13;;
3280;SDS011;1652;51.318;6.202;2023-04-15T01:03:19;9.10;;;6.20;;
3280;SDS011;1652;51.318;6.202;2023-04-15T01:05:47;6.87;;;6.23;;
3280;SDS011;1652;51.318;6.202;2023-04-15T01:08:14;9.07;;;6.07;;
3280;SDS011;1652;51.318;6.202;2023-04-15T01:10:41;7.17;;;6.20;;
3280;SDS011;1652;51.318;6.202;2023-04-15T01:13:08;6.70;;;6.03;;
3280;SDS011;1652;51.318;6.202;2023-04-15T01:15:35;7.13;;;6.10;;
3280;SDS011;1652;51.318;6.202;2023-04-15T01:18:02;13.63;;;6.20;;
3280;SDS011;1652;51.318;6.202;2023-04-15T01:20:29;8.70;;;6.57;;
3280;SDS011;1652;51.318;6.202;2023-04-15T01:22:56;7.50;;;6.20;;
3280;SDS011;1652;51.318;6.202;2023-04-15T01:25:27;9.97;;;6.37;;
3280;SDS011;1652;51.318;6.202;2023-04-15T01:27:58;6.67;;;6.13;;
3280;SDS011;1652;51.318;6.202;2023-04-15T01:30:25;11.23;;;7.00;;
3280;SDS011;1652;51.318;6.202;2023-04-15T01:32:52;11.20;;;8.30;;
3280;SDS011;1652;51.318;6.202;2023-04-15T01:35:19;12.43;;;7.63;;
3280;SDS011;1652;51.318;6.202;2023-04-15T01:37:46;10.20;;;7.20;;
3280;SDS011;1652;51.318;6.202;2023-04-15T01:40:14;13.50;;;7.90;;
3280;SDS011;1652;51.318;6.202;2023-04-15T01:42:41;12.13;;;7.90;;
3280;SDS011;1652;51.318;6.202;2023-04-15T01:45:08;9.67;;;7.20;;
3280;SDS011;1652;51.318;6.202;2023-04-15T01:47:35;10.83;;;7.03;;
3280;SDS011;1652;51.318;6.202;2023-04-15T01:50:03;11.37;;;8.13;;
3280;SDS011;1652;51.318;6.202;2023-04-15T01:52:30;11.73;;;8.47;;
3280;SDS011;1652;51.318;6.202;2023-04-15T01:54:57;10.53;;;7.50;;
3280;SDS011;1652;51.318;6.202;2023-04-15T01:57:24;8.10;;;6.90;;
3280;SDS011;1652;51.318;6.202;2023-04-15T01:59:51;12.10;;;7.20;;
3280;SDS011;1652;51.318;6.202;2023-04-15T02:02:18;13.83;;;8.30;;
3280;SDS011;1652;51.318;6.202;2023-04-15T02:04:45;11.53;;;8.13;;
3280;SDS011;1652;51.318;6.202;2023-04-15T02:07:12;9.70;;;7.60;;
3280;SDS011;1652;51.318;6.202;2023-04-15T02:09:39;9.50;;;8.53;;
3280;SDS011;1652;51.318;6.202;2023-04-15T02:12:06;10.30;;;8.13;;
3280;SDS011;1652;51.318;6.202;2023-04-15T02:14:33;11.07;;;8.60;;
3280;SDS011;1652;51.318;6.202;2023-04-15T02:17:00;11.80;;;9.30;;
3280;SDS011;1652;51.318;6.202;2023-04-15T02:19:35;25.33;;;8.70;;
3280;SDS011;1652;51.318;6.202;2023-04-15T02:22:02;14.50;;;8.53;;
3280;SDS011;1652;51.318;6.202;2023-04-15T02:24:29;12.23;;;9.13;;
3280;SDS011;1652;51.318;6.202;2023-04-15T02:26:56;11.30;;;8.30;;
3280;SDS011;1652;51.318;6.202;2023-04-15T02:29:23;17.53;;;10.07;;
3280;SDS011;1652;51.318;6.202;2023-04-15T02:31:50;12.10;;;8.90;;
3280;SDS011;1652;51.318;6.202;2023-04-15T02:34:17;10.53;;;8.60;;
3280;SDS011;1652;51.318;6.202;2023-04-15T02:36:44;9.70;;;8.70;;
3280;SDS011;1652;51.318;6.202;2023-04-15T02:39:12;18.87;;;10.50;;
3280;SDS011;1652;51.318;6.202;2023-04-15T02:41:42;10.60;;;7.93;;
3280;SDS011;1652;51.318;6.202;2023-04-15T02:44:09;12.87;;;10.07;;
3280;SDS011;1652;51.318;6.202;2023-04-15T02:46:38;12.60;;;9.07;;
3280;SDS011;1652;51.318;6.202;2023-04-15T02:49:06;13.13;;;8.60;;
3280;SDS011;1652;51.318;6.202;2023-04-15T02:51:33;20.53;;;9.73;;
3280;SDS011;1652;51.318;6.202;2023-04-15T02:54:00;9.67;;;8.67;;
3280;SDS011;1652;51.318;6.202;2023-04-15T02:56:28;11.00;;;9.00;;
3280;SDS011;1652;51.318;6.202;2023-04-15T02:58:56;13.73;;;9.60;;
3280;SDS011;1652;51.318;6.202;2023-04-15T03:01:23;12.10;;;9.50;;
3280;SDS011;1652;51.318;6.202;2023-04-15T03:03:51;14.80;;;9.40;;
3280;SDS011;1652;51.318;6.202;2023-04-15T03:06:18;12.00;;;9.47;;
3280;SDS011;1652;51.318;6.202;2023-04-15T03:08:45;21.80;;;10.10;;
3280;SDS011;1652;51.318;6.202;2023-04-15T03:11:13;16.07;;;10.27;;
3280;SDS011;1652;51.318;6.202;2023-04-15T03:13:40;16.03;;;10.90;;
3280;SDS011;1652;51.318;6.202;2023-04-15T03:16:08;22.97;;;9.53;;
3280;SDS011;1652;51.318;6.202;2023-04-15T03:18:35;19.77;;;10.83;;
3280;SDS011;1652;51.318;6.202;2023-04-15T03:21:03;14.10;;;10.23;;
3280;SDS011;1652;51.318;6.202;2023-04-15T03:23:30;16.13;;;10.03;;
3280;SDS011;1652;51.318;6.202;2023-04-15T03:26:00;14.40;;;10.73;;
3280;SDS011;1652;51.318;6.202;2023-04-15T03:28:27;15.87;;;9.63;;
3280;SDS011;1652;51.318;6.202;2023-04-15T03:30:55;17.13;;;11.80;;
3280;SDS011;1652;51.318;6.202;2023-04-15T03:33:22;14.63;;;10.60;;
3280;SDS011;1652;51.318;6.202;2023-04-15T03:35:49;15.43;;;11.27;;
3280;SDS011;1652;51.318;6.202;2023-04-15T03:38:17;13.03;;;10.17;;
3280;SDS011;1652;51.318;6.202;2023-04-15T03:40:45;20.77;;;10.70;;
3280;SDS011;1652;51.318;6.202;2023-04-15T03:43:12;12.93;;;10.37;;
3280;SDS011;1652;51.318;6.202;2023-04-15T03:45:39;12.40;;;10.20;;
3280;SDS011;1652;51.318;6.202;2023-04-15T03:48:06;11.23;;;9.70;;
3280;SDS011;1652;51.318;6.202;2023-04-15T03:50:43;21.70;;;11.07;;
3280;SDS011;1652;51.318;6.202;2023-04-15T03:53:10;12.53;;;11.23;;
3280;SDS011;1652;51.318;6.202;2023-04-15T03:55:37;15.13;;;10.60;;
3280;SDS011;1652;51.318;6.202;2023-04-15T03:58:04;19.67;;;10.93;;
3280;SDS011;1652;51.318;6.202;2023-04-15T04:00:30;27.50;;;12.27;;
3280;SDS011;1652;51.318;6.202;2023-04-15T04:02:57;21.20;;;11.70;;
3280;SDS011;1652;51.318;6.202;2023-04-15T04:05:24;16.23;;;10.90;;
3280;SDS011;1652;51.318;6.202;2023-04-15T04:07:51;16.13;;;11.70;;
3280;SDS011;1652;51.318;6.202;2023-04-15T04:10:18;17.13;;;12.20;;
3280;SDS011;1652;51.318;6.202;2023-04-15T04:12:45;19.23;;;10.80;;
3280;SDS011;1652;51.318;6.202;2023-04-15T04:15:12;16.87;;;11.87;;
3280;SDS011;1652;51.318;6.202;2023-04-15T04:17:39;19.27;;;12.47;;
3280;SDS011;1652;51.318;6.202;2023-04-15T04:20:06;23.83;;;11.40;;
3280;SDS011;1652;51.318;6.202;2023-04-15T04:22:37;13.93;;;10.87;;
3280;SDS011;1652;51.318;6.202;2023-04-15T04:25:05;14.50;;;11.73;;
3280;SDS011;1652;51.318;6.202;2023-04-15T04:27:33;17.40;;;11.93;;
3280;SDS011;1652;51.318;6.202;2023-04-15T04:30:01;17.33;;;12.43;;
3280;SDS011;1652;51.318;6.202;2023-04-15T04:32:28;18.67;;;13.73;;
3280;SDS011;1652;51.318;6.202;2023-04-15T04:34:55;14.37;;;12.10;;
3280;SDS011;1652;51.318;6.202;2023-04-15T04:37:21;15.80;;;12.10;;
3280;SDS011;1652;51.318;6.202;2023-04-15T04:39:49;21.10;;;12.77;;
3280;SDS011;1652;51.318;6.202;2023-04-15T04:42:16;17.47;;;13.00;;
3280;SDS011;1652;51.318;6.202;2023-04-15T04:44:43;25.27;;;13.60;;
3280;SDS011;1652;51.318;6.202;2023-04-15T04:47:10;17.10;;;13.13;;
3280;SDS011;1652;51.318;6.202;2023-04-15T04:49:37;27.80;;;13.13;;
3280;SDS011;1652;51.318;6.202;2023-04-15T04:52:04;20.20;;;14.40;;
3280;SDS011;1652;51.318;6.202;2023-04-15T04:54:31;22.13;;;14.80;;
3280;SDS011;1652;51.318;6.202;2023-04-15T04:56:57;19.83;;;12.37;;
3280;SDS011;1652;51.318;6.202;2023-04-15T04:59:25;17.87;;;12.93;;
3280;SDS011;1652;51.318;6.202;2023-04-15T05:01:52;18.50;;;12.73;;
3280;SDS011;1652;51.318;6.202;2023-04-15T05:04:19;15.00;;;12.80;;
3280;SDS011;1652;51.318;6.202;2023-04-15T05:06:45;21.10;;;13.50;;
3280;SDS011;1652;51.318;6.202;2023-04-15T05:09:13;18.50;;;13.03;;
3280;SDS011;1652;51.318;6.202;2023-04-15T05:11:39;15.57;;;12.33;;
3280;SDS011;1652;51.318;6.202;2023-04-15T05:14:06;21.57;;;11.83;;
3280;SDS011;1652;51.318;6.202;2023-04-15T05:16:33;19.40;;;12.23;;
3280;SDS011;1652;51.318;6.202;2023-04-15T05:19:00;15.00;;;12.50;;
3280;SDS011;1652;51.318;6.202;2023-04-15T05:21:27;21.13;;;14.73;;
3280;SDS011;1652;51.318;6.202;2023-04-15T05:23:54;17.83;;;12.57;;
3280;SDS011;1652;51.318;6.202;2023-04-15T05:26:21;20.10;;;11.00;;
3280;SDS011;1652;51.318;6.202;2023-04-15T05:28:49;13.50;;;11.00;;
3280;SDS011;1652;51.318;6.202;2023-04-15T05:31:16;18.73;;;11.70;;
3280;SDS011;1652;51.318;6.202;2023-04-15T05:33:43;15.03;;;11.53;;
3280;SDS011;1652;51.318;6.202;2023-04-15T05:36:10;13.33;;;11.77;;
3280;SDS011;1652;51.318;6.202;2023-04-15T05:38:37;18.40;;;10.33;;
3280;SDS011;1652;51.318;6.202;2023-04-15T05:41:04;16.20;;;11.30;;
3280;SDS011;1652;51.318;6.202;2023-04-15T05:43:31;12.23;;;10.93;;
3280;SDS011;1652;51.318;6.202;2023-04-15T05:45:58;16.10;;;10.70;;
3280;SDS011;1652;51.318;6.202;2023-04-15T05:48:25;15.43;;;10.97;;
3280;SDS011;1652;51.318;6.202;2023-04-15T05:50:51;14.13;;;11.13;;
3280;SDS011;1652;51.318;6.202;2023-04-15T05:53:19;10.60;;;9.33;;
3280;SDS011;1652;51.318;6.202;2023-04-15T05:55:46;14.70;;;11.20;;
3280;SDS011;1652;51.318;6.202;2023-04-15T05:58:12;11.83;;;10.47;;
3280;SDS011;1652;51.318;6.202;2023-04-15T06:00:39;19.37;;;9.73;;
3280;SDS011;1652;51.318;6.202;2023-04-15T06:03:06;16.13;;;10.50;;
3280;SDS011;1652;51.318;6.202;2023-04-15T06:05:33;11.90;;;10.70;;
3280;SDS011;1652;51.318;6.202;2023-04-15T06:08:00;12.93;;;10.90;;
3280;SDS011;1652;51.318;6.202;2023-04-15T06:10:27;15.77;;;10.13;;
3280;SDS011;1652;51.318;6.202;2023-04-15T06:12:54;11.77;;;9.80;;
3280;SDS011;1652;51.318;6.202;2023-04-15T06:15:21;9.97;;;8.97;;
3280;SDS011;1652;51.318;6.202;2023-04-15T06:17:48;13.63;;;9.90;;
3280;SDS011;1652;51.318;6.202;2023-04-15T06:20:15;11.20;;;10.07;;
3280;SDS011;1652;51.318;6.202;2023-04-15T06:22:41;13.63;;;10.80;;
3280;SDS011;1652;51.318;6.202;2023-04-15T06:25:08;15.90;;;10.30;;
3280;SDS011;1652;51.318;6.202;2023-04-15T06:27:36;11.63;;;10.30;;
3280;SDS011;1652;51.318;6.202;2023-04-15T06:30:03;12.87;;;11.13;;
3280;SDS011;1652;51.318;6.202;2023-04-15T06:32:31;13.37;;;10.13;;
3280;SDS011;1652;51.318;6.202;2023-04-15T06:34:58;12.20;;;10.33;;
3280;SDS011;1652;51.318;6.202;2023-04-15T06:37:25;12.73;;;9.50;;
3280;SDS011;1652;51.318;6.202;2023-04-15T06:39:52;10.50;;;9.27;;
3280;SDS011;1652;51.318;6.202;2023-04-15T06:42:19;11.20;;;9.97;;
3280;SDS011;1652;51.318;6.202;2023-04-15T06:44:46;16.47;;;10.30;;
3280;SDS011;1652;51.318;6.202;2023-04-15T06:47:13;16.37;;;10.40;;
3280;SDS011;1652;51.318;6.202;2023-04-15T06:49:40;12.33;;;9.83;;
3280;SDS011;1652;51.318;6.202;2023-04-15T06:52:09;12.93;;;10.10;;
3280;SDS011;1652;51.318;6.202;2023-04-15T06:54:36;10.83;;;9.73;;
3280;SDS011;1652;51.318;6.202;2023-04-15T06:57:03;13.30;;;10.20;;
3280;SDS011;1652;51.318;6.202;2023-04-15T06:59:30;14.37;;;10.80;;
3280;SDS011;1652;51.318;6.202;2023-04-15T07:01:57;17.93;;;11.57;;
3280;SDS011;1652;51.318;6.202;2023-04-15T07:04:23;13.80;;;10.30;;
3280;SDS011;1652;51.318;6.202;2023-04-15T07:06:51;15.07;;;10.00;;
3280;SDS011;1652;51.318;6.202;2023-04-15T07:09:17;13.67;;;10.77;;
3280;SDS011;1652;51.318;6.202;2023-04-15T07:11:45;15.33;;;11.20;;
3280;SDS011;1652;51.318;6.202;2023-04-15T07:14:11;18.00;;;10.73;;
3280;SDS011;1652;51.318;6.202;2023-04-15T07:16:38;11.90;;;9.63;;
3280;SDS011;1652;51.318;6.202;2023-04-15T07:19:05;13.83;;;11.23;;
3280;SDS011;1652;51.318;6.202;2023-04-15T07:21:32;12.80;;;10.97;;
3280;SDS011;1652;51.318;6.202;2023-04-15T07:23:59;12.83;;;10.63;;
3280;SDS011;1652;51.318;6.202;2023-04-15T07:26:26;19.37;;;11.50;;
3280;SDS011;1652;51.318;6.202;2023-04-15T07:28:53;14.40;;;11.60;;
3280;SDS011;1652;51.318;6.202;2023-04-15T07:31:20;14.83;;;12.03;;
3280;SDS011;1652;51.318;6.202;2023-04-15T07:33:47;15.23;;;11.93;;
3280;SDS011;1652;51.318;6.202;2023-04-15T07:36:14;14.80;;;12.70;;
3280;SDS011;1652;51.318;6.202;2023-04-15T07:38:41;12.50;;;11.30;;
3280;SDS011;1652;51.318;6.202;2023-04-15T07:41:08;15.53;;;11.57;;
3280;SDS011;1652;51.318;6.202;2023-04-15T07:43:35;14.10;;;12.03;;
3280;SDS011;1652;51.318;6.202;2023-04-15T07:46:02;13.70;;;9.87;;
3280;SDS011;1652;51.318;6.202;2023-04-15T07:48:29;12.70;;;10.00;;
3280;SDS011;1652;51.318;6.202;2023-04-15T07:50:56;10.17;;;9.13;;
3280;SDS011;1652;51.318;6.202;2023-04-15T07:53:24;15.07;;;12.17;;
3280;SDS011;1652;51.318;6.202;2023-04-15T07:55:51;11.63;;;8.53;;
3280;SDS011;1652;51.318;6.202;2023-04-15T07:58:18;9.80;;;8.90;;
3280;SDS011;1652;51.318;6.202;2023-04-15T08:00:44;10.20;;;9.20;;
3280;SDS011;1652;51.318;6.202;2023-04-15T08:03:11;9.17;;;8.33;;
3280;SDS011;1652;51.318;6.202;2023-04-15T08:05:39;7.93;;;7.23;;
3280;SDS011;1652;51.318;6.202;2023-04-15T08:08:06;10.23;;;8.27;;
3280;SDS011;1652;51.318;6.202;2023-04-15T08:10:33;9.17;;;8.27;;
3280;SDS011;1652;51.318;6.202;2023-04-15T08:13:00;8.43;;;7.10;;
3280;SDS011;1652;51.318;6.202;2023-04-15T08:15:27;12.17;;;8.93;;
3280;SDS011;1652;51.318;6.202;2023-04-15T08:17:54;7.90;;;7.03;;
3280;SDS011;1652;51.318;6.202;2023-04-15T08:20:21;5.53;;;5.33;;
3280;SDS011;1652;51.318;6.202;2023-04-15T08:22:48;6.67;;;6.17;;
3280;SDS011;1652;51.318;6.202;2023-04-15T08:25:17;6.57;;;6.07;;
3280;SDS011;1652;51.318;6.202;2023-04-15T08:27:45;6.47;;;5.97;;
3280;SDS011;1652;51.318;6.202;2023-04-15T08:30:12;6.00;;;5.50;;
3280;SDS011;1652;51.318;6.202;2023-04-15T08:32:40;5.17;;;4.87;;
3280;SDS011;1652;51.318;6.202;2023-04-15T08:35:08;5.60;;;4.80;;
3280;SDS011;1652;51.318;6.202;2023-04-15T08:37:35;5.40;;;5.07;;
3280;SDS011;1652;51.318;6.202;2023-04-15T08:40:02;4.17;;;3.97;;
3280;SDS011;1652;51.318;6.202;2023-04-15T08:42:30;5.27;;;4.80;;
3280;SDS011;1652;51.318;6.202;2023-04-15T08:45:00;4.67;;;4.37;;
3280;SDS011;1652;51.318;6.202;2023-04-15T08:47:30;5.60;;;5.30;;
3280;SDS011;1652;51.318;6.202;2023-04-15T08:49:58;8.53;;;4.93;;
3280;SDS011;1652;51.318;6.202;2023-04-15T08:52:26;5.60;;;5.30;;
3280;SDS011;1652;51.318;6.202;2023-04-15T08:54:54;5.50;;;5.20;;
3280;SDS011;1652;51.318;6.202;2023-04-15T08:57:27;4.70;;;4.50;;
3280;SDS011;1652;51.318;6.202;2023-04-15T08:59:54;5.13;;;4.90;;
3280;SDS011;1652;51.318;6.202;2023-04-15T09:02:23;5.63;;;4.90;;
3280;SDS011;1652;51.318;6.202;2023-04-15T09:04:52;5.53;;;4.40;;
3280;SDS011;1652;51.318;6.202;2023-04-15T09:07:19;6.07;;;5.57;;
3280;SDS011;1652;51.318;6.202;2023-04-15T09:09:46;6.13;;;5.40;;
3280;SDS011;1652;51.318;6.202;2023-04-15T09:12:13;5.40;;;5.00;;
3280;SDS011;1652;51.318;6.202;2023-04-15T09:14:44;5.40;;;4.90;;
3280;SDS011;1652;51.318;6.202;2023-04-15T09:17:11;5.10;;;4.63;;
3280;SDS011;1652;51.318;6.202;2023-04-15T09:19:38;4.53;;;4.20;;
3280;SDS011;1652;51.318;6.202;2023-04-15T09:22:05;4.57;;;4.20;;
3280;SDS011;1652;51.318;6.202;2023-04-15T09:24:36;4.77;;;4.47;;
3280;SDS011;1652;51.318;6.202;2023-04-15T09:27:04;4.30;;;4.00;;
3280;SDS011;1652;51.318;6.202;2023-04-15T09:29:31;5.20;;;4.77;;
3280;SDS011;1652;51.318;6.202;2023-04-15T09:32:08;4.10;;;3.80;;
3280;SDS011;1652;51.318;6.202;2023-04-15T09:34:36;4.80;;;4.50;;
3280;SDS011;1652;51.318;6.202;2023-04-15T09:37:03;4.27;;;3.97;;
3280;SDS011;1652;51.318;6.202;2023-04-15T09:39:48;4.60;;;4.40;;
3280;SDS011;1652;51.318;6.202;2023-04-15T09:42:17;3.20;;;3.00;;
3280;SDS011;1652;51.318;6.202;2023-04-15T09:44:50;2.97;;;2.87;;
3280;SDS011;1652;51.318;6.202;2023-04-15T09:47:28;4.07;;;3.67;;
3280;SDS011;1652;51.318;6.202;2023-04-15T09:49:56;5.60;;;5.20;;
3280;SDS011;1652;51.318;6.202;2023-04-15T09:52:24;5.73;;;5.43;;
3280;SDS011;1652;51.318;6.202;2023-04-15T09:54:55;5.40;;;4.90;;
3280;SDS011;1652;51.318;6.202;2023-04-15T09:57:23;4.63;;;4.27;;
3280;SDS011;1652;51.318;6.202;2023-04-15T09:59:50;4.60;;;4.40;;
3280;SDS011;1652;51.318;6.202;2023-04-15T10:02:18;4.50;;;4.17;;
3280;SDS011;1652;51.318;6.202;2023-04-15T10:04:48;4.50;;;4.30;;
3280;SDS011;1652;51.318;6.202;2023-04-15T10:07:16;4.90;;;4.70;;
3280;SDS011;1652;51.318;6.202;2023-04-15T10:09:45;6.93;;;6.33;;
3280;SDS011;1652;51.318;6.202;2023-04-15T10:12:17;4.93;;;4.73;;
3280;SDS011;1652;51.318;6.202;2023-04-15T10:14:47;6.20;;;5.70;;
3280;SDS011;1652;51.318;6.202;2023-04-15T10:17:18;6.63;;;6.10;;
3280;SDS011;1652;51.318;6.202;2023-04-15T10:19:48;5.37;;;5.07;;
3280;SDS011;1652;51.318;6.202;2023-04-15T10:22:18;4.87;;;4.67;;
3280;SDS011;1652;51.318;6.202;2023-04-15T10:24:45;6.10;;;5.20;;
3280;SDS011;1652;51.318;6.202;2023-04-15T10:27:14;5.97;;;5.57;;
3280;SDS011;1652;51.318;6.202;2023-04-15T10:29:43;5.33;;;4.93;;
3280;SDS011;1652;51.318;6.202;2023-04-15T10:32:10;5.17;;;4.87;;
3280;SDS011;1652;51.318;6.202;2023-04-15T10:34:38;4.97;;;4.37;;
3280;SDS011;1652;51.318;6.202;2023-04-15T10:37:08;4.23;;;3.40;;
3280;SDS011;1652;51.318;6.202;2023-04-15T10:42:16;3.30;;;2.87;;
3280;SDS011;1652;51.318;6.202;2023-04-15T10:44:48;2.90;;;2.80;;
3280;SDS011;1652;51.318;6.202;2023-04-15T10:47:19;3.50;;;3.30;;
3280;SDS011;1652;51.318;6.202;2023-04-15T10:49:48;2.70;;;2.60;;
3280;SDS011;1652;51.318;6.202;2023-04-15T10:52:21;3.00;;;2.90;;
3280;SDS011;1652;51.318;6.202;2023-04-15T10:54:49;3.33;;;3.13;;
3280;SDS011;1652;51.318;6.202;2023-04-15T10:57:27;4.03;;;3.77;;
3280;SDS011;1652;51.318;6.202;2023-04-15T11:00:03;3.30;;;3.20;;
3280;SDS011;1652;51.318;6.202;2023-04-15T11:02:40;4.20;;;4.00;;
3280;SDS011;1652;51.318;6.202;2023-04-15T11:05:13;3.37;;;3.27;;
3280;SDS011;1652;51.318;6.202;2023-04-15T11:12:52;2.90;;;2.70;;
3280;SDS011;1652;51.318;6.202;2023-04-15T11:17:58;2.80;;;2.60;;
3280;SDS011;1652;51.318;6.202;2023-04-15T11:20:25;2.87;;;2.77;;
3280;SDS011;1652;51.318;6.202;2023-04-15T11:22:53;4.70;;;3.23;;
3280;SDS011;1652;51.318;6.202;2023-04-15T11:25:39;2.43;;;2.33;;
3280;SDS011;1652;51.318;6.202;2023-04-15T11:28:06;4.63;;;4.23;;
3280;SDS011;1652;51.318;6.202;2023-04-15T11:30:33;3.47;;;3.20;;
3280;SDS011;1652;51.318;6.202;2023-04-15T11:33:03;4.00;;;3.80;;
3280;SDS011;1652;51.318;6.202;2023-04-15T11:35:32;2.20;;;2.00;;
3280;SDS011;1652;51.318;6.202;2023-04-15T11:38:03;7.33;;;3.03;;
3280;SDS011;1652;51.318;6.202;2023-04-15T11:40:30;4.53;;;3.30;;
3280;SDS011;1652;51.318;6.202;2023-04-15T11:45:54;3.60;;;3.50;;
3280;SDS011;1652;51.318;6.202;2023-04-15T11:48:29;4.17;;;2.90;;
3280;SDS011;1652;51.318;6.202;2023-04-15T11:50:59;3.70;;;3.53;;
3280;SDS011;1652;51.318;6.202;2023-04-15T11:56:19;3.13;;;3.03;;
3280;SDS011;1652;51.318;6.202;2023-04-15T11:58:48;3.60;;;3.30;;
3280;SDS011;1652;51.318;6.202;2023-04-15T12:01:18;4.30;;;2.63;;
3280;SDS011;1652;51.318;6.202;2023-04-15T12:03:45;4.47;;;4.07;;
3280;SDS011;1652;51.318;6.202;2023-04-15T12:06:20;2.60;;;2.50;;
3280;SDS011;1652;51.318;6.202;2023-04-15T12:11:39;2.80;;;2.70;;
3280;SDS011;1652;51.318;6.202;2023-04-15T12:16:48;6.00;;;2.93;;
3280;SDS011;1652;51.318;6.202;2023-04-15T12:19:21;3.30;;;3.20;;
3280;SDS011;1652;51.318;6.202;2023-04-15T12:21:56;3.17;;;2.97;;
3280;SDS011;1652;51.318;6.202;2023-04-15T12:24:26;3.30;;;3.10;;
3280;SDS011;1652;51.318;6.202;2023-04-15T12:26:54;3.57;;;3.10;;
3280;SDS011;1652;51.318;6.202;2023-04-15T12:29:26;3.83;;;3.53;;
3280;SDS011;1652;51.318;6.202;2023-04-15T12:31:55;4.00;;;3.80;;
3280;SDS011;1652;51.318;6.202;2023-04-15T12:34:29;3.00;;;2.90;;
3280;SDS011;1652;51.318;6.202;2023-04-15T12:36:59;3.00;;;2.90;;
3280;SDS011;1652;51.318;6.202;2023-04-15T12:39:28;2.83;;;2.63;;
3280;SDS011;1652;51.318;6.202;2023-04-15T12:41:57;3.47;;;3.27;;
3280;SDS011;1652;51.318;6.202;2023-04-15T12:44:26;3.10;;;3.00;;
3280;SDS011;1652;51.318;6.202;2023-04-15T12:46:53;2.30;;;2.03;;
3280;SDS011;1652;51.318;6.202;2023-04-15T12:49:21;2.93;;;2.70;;
3280;SDS011;1652;51.318;6.202;2023-04-15T12:51:50;2.80;;;2.70;;
3280;SDS011;1652;51.318;6.202;2023-04-15T12:54:18;1.93;;;1.83;;
3280;SDS011;1652;51.318;6.202;2023-04-15T12:56:45;1.70;;;1.60;;
3280;SDS011;1652;51.318;6.202;2023-04-15T12:59:13;1.73;;;1.63;;
3280;SDS011;1652;51.318;6.202;2023-04-15T13:01:41;1.73;;;1.63;;
3280;SDS011;1652;51.318;6.202;2023-04-15T13:04:08;1.87;;;1.77;;
3280;SDS011;1652;51.318;6.202;2023-04-15T13:06:35;2.70;;;2.37;;
3280;SDS011;1652;51.318;6.202;2023-04-15T13:09:03;8.10;;;2.67;;
3280;SDS011;1652;51.318;6.202;2023-04-15T13:11:31;2.73;;;2.27;;
3280;SDS011;1652;51.318;6.202;2023-04-15T13:14:03;2.53;;;2.43;;
3280;SDS011;1652;51.318;6.202;2023-04-15T13:16:32;2.17;;;2.07;;
3280;SDS011;1652;51.318;6.202;2023-04-15T13:18:59;2.40;;;2.20;;
3280;SDS011;1652;51.318;6.202;2023-04-15T13:21:28;2.10;;;2.00;;
3280;SDS011;1652;51.318;6.202;2023-04-15T13:23:56;2.93;;;2.73;;
3280;SDS011;1652;51.318;6.202;2023-04-15T13:26:23;2.20;;;2.10;;
3280;SDS011;1652;51.318;6.202;2023-04-15T13:28:50;6.20;;;2.30;;
3280;SDS011;1652;51.318;6.202;2023-04-15T13:31:17;2.10;;;2.00;;
3280;SDS011;1652;51.318;6.202;2023-04-15T13:33:44;2.73;;;2.30;;
3280;SDS011;1652;51.318;6.202;2023-04-15T13:36:11;2.43;;;1.97;;
3280;SDS011;1652;51.318;6.202;2023-04-15T13:38:38;3.50;;;2.77;;
3280;SDS011;1652;51.318;6.202;2023-04-15T13:41:05;2.10;;;2.00;;
3280;SDS011;1652;51.318;6.202;2023-04-15T13:43:31;5.87;;;2.40;;
3280;SDS011;1652;51.318;6.202;2023-04-15T13:45:59;1.90;;;1.80;;
3280;SDS011;1652;51.318;6.202;2023-04-15T13:48:27;8.47;;;2.13;;
3280;SDS011;1652;51.318;6.202;2023-04-15T13:50:54;1.77;;;1.67;;
3280;SDS011;1652;51.318;6.202;2023-04-15T13:53:21;1.87;;;1.67;;
3280;SDS011;1652;51.318;6.202;2023-04-15T13:56:04;2.40;;;1.40;;
3280;SDS011;1652;51.318;6.202;2023-04-15T13:58:32;1.60;;;1.50;;
3280;SDS011;1652;51.318;6.202;2023-04-15T14:00:59;2.27;;;2.07;;
3280;SDS011;1652;51.318;6.202;2023-04-15T14:03:29;2.23;;;1.83;;
3280;SDS011;1652;51.318;6.202;2023-04-15T14:05:57;3.30;;;1.47;;
3280;SDS011;1652;51.318;6.202;2023-04-15T14:08:24;3.60;;;1.53;;
3280;SDS011;1652;51.318;6.202;2023-04-15T14:10:51;1.50;;;1.40;;
3280;SDS011;1652;51.318;6.202;2023-04-15T14:13:18;1.33;;;1.23;;
3280;SDS011;1652;51.318;6.202;2023-04-15T14:18:21;1.70;;;1.37;;
3280;SDS011;1652;51.318;6.202;2023-04-15T14:20:48;1.43;;;1.33;;
3280;SDS011;1652;51.318;6.202;2023-04-15T14:23:15;3.10;;;2.77;;
3280;SDS011;1652;51.318;6.202;2023-04-15T14:25:42;1.80;;;1.70;;
3280;SDS011;1652;51.318;6.202;2023-04-15T14:28:13;1.57;;;0.93;;
3280;SDS011;1652;51.318;6.202;2023-04-15T14:30:40;4.50;;;1.30;;
3280;SDS011;1652;51.318;6.202;2023-04-15T14:33:07;1.83;;;0.90;;
3280;SDS011;1652;51.318;6.202;2023-04-15T14:35:34;1.20;;;1.10;;
3280;SDS011;1652;51.318;6.202;2023-04-15T14:38:01;1.17;;;1.07;;
3280;SDS011;1652;51.318;6.202;2023-04-15T14:40:28;1.27;;;1.17;;
3280;SDS011;1652;51.318;6.202;2023-04-15T14:42:54;4.03;;;1.83;;
3280;SDS011;1652;51.318;6.202;2023-04-15T14:45:21;1.37;;;1.27;;
3280;SDS011;1652;51.318;6.202;2023-04-15T14:47:48;1.50;;;1.40;;
3280;SDS011;1652;51.318;6.202;2023-04-15T14:50:15;3.53;;;1.57;;
3280;SDS011;1652;51.318;6.202;2023-04-15T14:52:42;1.47;;;1.37;;
3280;SDS011;1652;51.318;6.202;2023-04-15T14:55:10;4.33;;;2.57;;
3280;SDS011;1652;51.318;6.202;2023-04-15T14:57:38;3.00;;;2.10;;
3280;SDS011;1652;51.318;6.202;2023-04-15T15:00:06;11.00;;;1.40;;
3280;SDS011;1652;51.318;6.202;2023-04-15T15:02:35;1.57;;;1.47;;
3280;SDS011;1652;51.318;6.202;2023-04-15T15:05:05;10.83;;;1.10;;
3280;SDS011;1652;51.318;6.202;2023-04-15T15:07:34;2.73;;;1.53;;
3280;SDS011;1652;51.318;6.202;2023-04-15T15:10:02;1.60;;;1.50;;
3280;SDS011;1652;51.318;6.202;2023-04-15T15:12:29;2.60;;;1.67;;
3280;SDS011;1652;51.318;6.202;2023-04-15T15:14:57;2.33;;;1.37;;
3280;SDS011;1652;51.318;6.202;2023-04-15T15:17:24;1.33;;;1.23;;
3280;SDS011;1652;51.318;6.202;2023-04-15T15:19:51;3.77;;;2.63;;
3280;SDS011;1652;51.318;6.202;2023-04-15T15:22:18;2.80;;;2.50;;
3280;SDS011;1652;51.318;6.202;2023-04-15T15:24:46;1.90;;;1.80;;
3280;SDS011;1652;51.318;6.202;2023-04-15T15:27:13;2.57;;;2.47;;
3280;SDS011;1652;51.318;6.202;2023-04-15T15:29:40;3.00;;;1.90;;
3280;SDS011;1652;51.318;6.202;2023-04-15T15:32:07;1.60;;;1.50;;
3280;SDS011;1652;51.318;6.202;2023-04-15T15:34:34;4.17;;;1.63;;